Time;durP1;ratioP1;P1;durP2;ratioP2;P2;SDS_P1;SDS_P2;PMS_P1;PMS_P2;Temp;Humidity;BMP_temperature;BMP_pressure;BME280_temperature;BME280_humidity;BME280_pressure;Samples;Min_cycle;Max_cycle;Signal;HPM_P1;HPM_P2
2022/09/20 00:01:07;;;;;;;6.93;2.70;;;6.80;85.10;;;;;;5055561;28;20052;-79
2022/09/20 00:03:37;;;;;;;9.98;2.53;;;6.80;85.10;;;;;;5055479;28;20021;-79
2022/09/20 00:06:05;;;;;;;6.57;2.20;;;6.80;84.90;;;;;;5055428;28;20385;-79
2022/09/20 00:08:32;;;;;;;9.07;2.75;;;6.80;85.00;;;;;;5054967;28;20013;-78
2022/09/20 00:11:06;;;;;;;6.00;2.13;;;6.80;85.10;;;;;;5055325;28;20043;-78
2022/09/20 00:13:33;;;;;;;8.60;2.55;;;6.70;85.10;;;;;;5054137;28;20495;-79
2022/09/20 00:16:02;;;;;;;9.75;2.50;;;6.70;85.40;;;;;;5055147;28;20036;-79
2022/09/20 00:18:28;;;;;;;7.55;2.72;;;6.80;85.40;;;;;;5053756;28;20104;-79
2022/09/20 00:20:54;;;;;;;5.22;2.17;;;6.80;85.30;;;;;;5055213;28;20104;-80
2022/09/20 00:23:19;;;;;;;10.10;2.47;;;6.70;85.20;;;;;;5055188;28;20119;-78
2022/09/20 00:25:52;;;;;;;8.82;2.40;;;6.70;85.40;;;;;;5054904;28;20053;-79
2022/09/20 00:28:18;;;;;;;5.50;2.08;;;6.70;85.40;;;;;;5055195;28;20476;-78
2022/09/20 00:30:43;;;;;;;10.27;2.40;;;6.70;85.40;;;;;;5053688;28;20036;-78
2022/09/20 00:33:09;;;;;;;5.90;1.95;;;6.70;85.50;;;;;;5055000;28;20031;-79
2022/09/20 00:35:34;;;;;;;4.60;1.90;;;6.70;85.50;;;;;;5054598;28;20029;-79
2022/09/20 00:38:00;;;;;;;8.25;2.55;;;6.70;85.60;;;;;;5054908;28;20078;-79
2022/09/20 00:40:25;;;;;;;7.32;2.20;;;6.60;85.50;;;;;;5053450;28;20052;-79
2022/09/20 00:42:51;;;;;;;3.85;1.63;;;6.60;85.40;;;;;;5054639;28;20422;-79
2022/09/20 00:45:23;;;;;;;6.78;2.45;;;6.70;85.40;;;;;;5054692;28;20025;-78
2022/09/20 00:48:10;;;;;;;6.82;1.73;;;6.70;85.10;;;;;;5054609;28;20029;-79
2022/09/20 00:50:43;;;;;;;4.28;2.40;;;6.70;85.10;;;;;;5054705;28;20116;-80
2022/09/20 00:53:15;;;;;;;8.63;2.42;;;6.60;85.00;;;;;;5054440;28;20401;-80
2022/09/20 00:55:56;;;;;;;7.15;2.00;;;6.50;85.10;;;;;;5054648;28;20076;-81
2022/09/20 00:58:26;;;;;;;6.90;2.25;;;6.50;85.30;;;;;;5054679;28;20124;-80
2022/09/20 01:00:54;;;;;;;6.10;2.13;;;6.50;85.50;;;;;;5054467;28;20027;-81
2022/09/20 01:03:21;;;;;;;8.82;2.35;;;6.50;85.40;;;;;;5054207;28;20531;-80
2022/09/20 01:05:49;;;;;;;5.28;2.55;;;6.50;85.30;;;;;;5054447;28;20032;-81
2022/09/20 01:08:16;;;;;;;6.60;2.35;;;6.50;85.30;;;;;;5054382;28;20021;-80
2022/09/20 01:10:42;;;;;;;10.77;1.95;;;6.40;85.30;;;;;;5054289;28;20037;-79
2022/09/20 01:13:14;;;;;;;14.85;2.53;;;6.40;85.50;;;;;;5053187;28;20036;-81
2022/09/20 01:19:07;;;;;;;9.40;2.10;;;6.40;85.60;;;;;;5054177;28;20036;-80
2022/09/20 01:21:33;;;;;;;7.68;2.20;;;6.40;85.50;;;;;;5054126;28;20459;-80
2022/09/20 01:24:13;;;;;;;10.38;2.03;;;6.40;85.60;;;;;;5053961;28;20033;-81
2022/09/20 01:27:01;;;;;;;9.63;2.30;;;6.30;86.10;;;;;;5053958;28;20045;-80
2022/09/20 01:29:50;;;;;;;7.80;1.90;;;6.30;86.20;;;;;;5053849;28;20039;-81
2022/09/20 01:32:19;;;;;;;5.78;1.65;;;6.40;86.00;;;;;;5051906;28;20029;-80
2022/09/20 01:34:58;;;;;;;5.20;1.80;;;6.30;86.00;;;;;;5053791;28;20028;-80
2022/09/20 01:37:27;;;;;;;5.93;2.00;;;6.40;85.80;;;;;;5053833;28;20029;-80
2022/09/20 01:40:05;;;;;;;8.23;1.77;;;6.40;85.50;;;;;;5053581;28;20131;-80
2022/09/20 01:42:37;;;;;;;9.52;2.22;;;6.40;85.40;;;;;;5053577;28;20481;-81
2022/09/20 01:45:21;;;;;;;8.02;2.15;;;6.40;85.40;;;;;;5052529;28;20450;-80
2022/09/20 01:48:21;;;;;;;7.43;2.10;;;6.30;85.60;;;;;;5053467;28;20099;-80
2022/09/20 01:51:36;;;;;;;5.38;1.98;;;6.30;85.80;;;;;;5051870;28;20033;-80
2022/09/20 01:54:04;;;;;;;6.00;2.08;;;6.30;86.00;;;;;;5049979;28;20542;-80
2022/09/20 01:57:02;;;;;;;5.55;1.70;;;6.30;86.00;;;;;;5051980;28;20488;-80
2022/09/20 01:59:49;;;;;;;11.63;2.10;;;6.30;85.70;;;;;;5047651;28;20040;-80
2022/09/20 02:02:31;;;;;;;2.83;1.70;;;6.30;85.70;;;;;;5052130;28;20135;-80
2022/09/20 02:05:16;;;;;;;12.18;1.92;;;6.30;85.70;;;;;;5053122;28;20049;-80
2022/09/20 02:07:51;;;;;;;5.05;1.88;;;6.30;86.40;;;;;;5053165;28;20021;-80
2022/09/20 02:10:48;;;;;;;4.03;1.30;;;6.30;85.60;;;;;;5053258;28;20033;-79
2022/09/20 02:13:49;;;;;;;7.55;1.85;;;6.30;85.80;;;;;;5051913;28;20060;-79
2022/09/20 02:16:27;;;;;;;7.75;2.13;;;6.30;85.60;;;;;;5052979;28;20021;-79
2022/09/20 02:19:11;;;;;;;3.92;2.00;;;6.30;85.60;;;;;;5053346;28;20025;-79
2022/09/20 02:22:07;;;;;;;7.57;1.92;;;6.30;85.60;;;;;;5053000;28;20021;-80
2022/09/20 02:24:33;;;;;;;8.07;2.17;;;6.30;85.40;;;;;;5051643;28;20047;-80
2022/09/20 02:27:27;;;;;;;7.95;1.73;;;6.20;85.30;;;;;;5051793;28;20036;-80
2022/09/20 02:30:08;;;;;;;8.82;1.50;;;6.10;85.60;;;;;;5052897;28;20033;-79
2022/09/20 02:33:22;;;;;;;5.75;2.40;;;6.10;86.00;;;;;;5051904;28;20028;-79
2022/09/20 02:36:19;;;;;;;7.68;1.88;;;6.10;86.30;;;;;;5049206;28;20060;-79
2022/09/20 02:39:02;;;;;;;8.45;2.00;;;6.00;86.50;;;;;;5051549;28;20021;-79
2022/09/20 02:41:40;;;;;;;8.50;1.65;;;6.00;86.80;;;;;;5052739;28;20116;-79
2022/09/20 02:44:53;;;;;;;7.35;2.30;;;6.00;86.90;;;;;;5052763;28;20061;-79
2022/09/20 02:47:33;;;;;;;5.72;1.63;;;6.00;86.80;;;;;;5034299;28;20083;-79
2022/09/20 02:50:25;;;;;;;11.15;1.90;;;5.90;86.90;;;;;;5052767;28;20078;-79
2022/09/20 02:53:06;;;;;;;8.63;2.45;;;5.90;87.00;;;;;;5050664;28;20036;-80
2022/09/20 02:55:46;;;;;;;5.07;2.08;;;5.90;87.10;;;;;;5052665;28;20048;-79
2022/09/20 02:58:34;;;;;;;7.88;2.20;;;5.90;86.90;;;;;;5052906;28;20025;-79
2022/09/20 03:01:31;;;;;;;9.05;2.13;;;6.00;86.40;;;;;;5051752;28;20477;-79
2022/09/20 03:04:24;;;;;;;9.95;2.03;;;6.00;86.10;;;;;;5056692;28;20056;-80
2022/09/20 03:07:26;;;;;;;6.15;2.47;;;5.90;86.10;;;;;;5056735;28;20017;-80
2022/09/20 03:10:13;;;;;;;10.75;2.45;;;5.90;86.30;;;;;;5056223;28;20044;-80
2022/09/20 03:12:48;;;;;;;6.57;1.95;;;6.00;86.40;;;;;;5056644;28;20021;-80
2022/09/20 03:15:30;;;;;;;9.98;2.05;;;5.90;86.70;;;;;;5055315;28;20055;-79
2022/09/20 03:18:09;;;;;;;10.30;2.45;;;5.90;86.80;;;;;;5056137;28;20120;-79
2022/09/20 03:20:49;;;;;;;10.32;1.85;;;5.90;87.00;;;;;;5056776;28;20032;-79
2022/09/20 03:23:40;;;;;;;5.13;2.03;;;5.90;86.80;;;;;;5056521;28;20453;-79
2022/09/20 03:26:29;;;;;;;8.10;2.03;;;6.00;86.80;;;;;;5056315;28;20021;-79
2022/09/20 03:29:06;;;;;;;6.13;2.03;;;5.90;86.80;;;;;;5056358;28;20079;-79
2022/09/20 03:31:55;;;;;;;6.82;2.42;;;5.90;86.70;;;;;;5054982;28;20044;-79
2022/09/20 03:34:58;;;;;;;10.52;2.00;;;5.90;86.70;;;;;;5056215;28;20434;-79
2022/09/20 03:37:59;;;;;;;8.60;1.85;;;5.90;86.90;;;;;;5054330;28;20049;-79
2022/09/20 03:40:35;;;;;;;10.48;2.42;;;5.90;86.90;;;;;;5053677;28;20493;-79
2022/09/20 03:43:21;;;;;;;7.40;2.45;;;5.90;87.10;;;;;;5055923;28;20485;-79
2022/09/20 03:46:05;;;;;;;8.38;2.30;;;5.90;87.20;;;;;;5055718;28;20386;-79
2022/09/20 03:48:46;;;;;;;7.32;2.15;;;6.00;88.20;;;;;;5055798;28;20104;-79
2022/09/20 03:51:27;;;;;;;12.95;2.58;;;6.00;87.40;;;;;;5055707;28;20041;-78
2022/09/20 03:54:30;;;;;;;7.03;2.50;;;6.00;87.60;;;;;;5055707;28;20481;-79
2022/09/20 03:56:58;;;;;;;6.47;2.20;;;6.00;87.40;;;;;;5055679;28;20033;-80
2022/09/20 03:59:35;;;;;;;10.07;2.08;;;6.00;87.00;;;;;;5055876;28;20025;-79
2022/09/20 04:02:28;;;;;;;7.15;2.03;;;6.00;86.80;;;;;;5055707;28;20029;-80
2022/09/20 04:05:25;;;;;;;8.45;2.42;;;6.00;86.60;;;;;;5055567;28;20027;-80
2022/09/20 04:07:59;;;;;;;12.88;2.47;;;5.90;86.70;;;;;;5035962;28;20040;-80
2022/09/20 04:10:58;;;;;;;5.50;2.15;;;5.90;86.90;;;;;;5055466;28;20033;-79
2022/09/20 04:13:49;;;;;;;12.23;2.72;;;5.90;86.90;;;;;;5053439;28;20041;-80
2022/09/20 04:16:42;;;;;;;8.23;2.63;;;5.90;87.00;;;;;;5055605;28;20076;-79
2022/09/20 04:19:13;;;;;;;8.65;2.95;;;5.80;87.10;;;;;;5078540;28;20012;-79
2022/09/20 04:21:52;;;;;;;11.23;2.95;;;5.90;87.00;;;;;;5062643;28;20037;-81
2022/09/20 04:24:27;;;;;;;7.53;2.92;;;5.90;86.90;;;;;;5055361;28;20021;-79
2022/09/20 04:27:04;;;;;;;7.30;3.15;;;5.90;86.60;;;;;;5055456;28;20044;-80
2022/09/20 04:29:40;;;;;;;5.95;3.15;;;5.90;86.50;;;;;;5053508;28;20039;-79
2022/09/20 04:32:30;;;;;;;9.43;3.47;;;5.80;86.40;;;;;;5055253;28;20021;-80
2022/09/20 04:37:50;;;;;;;11.38;3.55;;;5.90;86.40;;;;;;5055139;28;20040;-80
2022/09/20 04:40:22;;;;;;;7.95;3.10;;;6.00;86.40;;;;;;5053147;28;20622;-80
2022/09/20 04:43:21;;;;;;;8.07;3.17;;;6.00;86.10;;;;;;5054877;28;20036;-81
2022/09/20 04:46:26;;;;;;;6.47;2.55;;;6.00;86.10;;;;;;5054980;28;20061;-80
2022/09/20 04:49:03;;;;;;;9.52;3.30;;;6.10;85.40;;;;;;5054429;28;20392;-80
2022/09/20 04:51:56;;;;;;;7.50;2.70;;;6.00;85.00;;;;;;5054651;28;20037;-80
2022/09/20 04:55:07;;;;;;;5.60;2.38;;;6.00;85.40;;;;;;5053598;28;20032;-81
2022/09/20 04:57:41;;;;;;;15.52;2.90;;;6.00;85.10;;;;;;5021832;28;20037;-81
2022/09/20 05:00:14;;;;;;;5.75;1.77;;;6.00;85.10;;;;;;5054428;28;20021;-81
2022/09/20 05:02:46;;;;;;;12.57;2.63;;;6.00;85.00;;;;;;5054510;28;20112;-81
2022/09/20 05:05:54;;;;;;;10.65;2.25;;;6.00;85.00;;;;;;5054511;28;20025;-81
2022/09/20 05:08:39;;;;;;;6.88;2.22;;;5.90;85.30;;;;;;5053519;28;20433;-81
2022/09/20 05:11:08;;;;;;;6.33;2.30;;;5.90;85.60;;;;;;5054443;28;20033;-82
2022/09/20 05:13:37;;;;;;;10.35;3.35;;;5.80;85.40;;;;;;5053950;28;20017;-81
2022/09/20 05:16:22;;;;;;;9.52;3.03;;;5.80;85.00;;;;;;5054205;28;20029;-82
2022/09/20 05:19:25;;;;;;;9.35;3.40;;;5.80;85.00;;;;;;5054159;28;20048;-80
2022/09/20 05:21:50;;;;;;;10.48;4.20;;;5.70;85.20;;;;;;5055497;28;20049;-81
2022/09/20 05:24:19;;;;;;;8.80;3.72;;;5.70;85.60;;;;;;5052725;28;20147;-81
2022/09/20 05:26:50;;;;;;;9.77;3.60;;;5.60;85.70;;;;;;5053693;28;20072;-81
2022/09/20 05:29:37;;;;;;;7.25;2.90;;;5.60;86.20;;;;;;5053793;28;20025;-80
2022/09/20 05:32:34;;;;;;;10.90;3.75;;;5.60;86.70;;;;;;5052842;28;20025;-81
2022/09/20 05:35:03;;;;;;;;;;;5.70;86.90;;;;;;5052226;28;20112;-79
2022/09/20 05:37:31;;;;;;;8.18;4.15;;;5.70;87.00;;;;;;5053799;28;19904;-80
2022/09/20 05:40:12;;;;;;;9.45;3.55;;;5.70;86.80;;;;;;5053731;28;20047;-79
2022/09/20 05:42:43;;;;;;;8.65;3.38;;;5.80;86.60;;;;;;5053668;28;20028;-79
2022/09/20 05:45:36;;;;;;;9.43;3.22;;;5.90;86.30;;;;;;5053574;28;20021;-80
2022/09/20 05:48:13;;;;;;;8.52;3.58;;;5.90;86.10;;;;;;5052198;28;20150;-78
2022/09/20 05:50:56;;;;;;;9.70;3.30;;;6.00;85.80;;;;;;5053381;28;20374;-81
2022/09/20 05:54:05;;;;;;;8.77;3.38;;;6.00;85.60;;;;;;5052568;28;20021;-82
2022/09/20 05:56:49;;;;;;;14.68;3.88;;;6.00;86.10;;;;;;5053623;28;20409;-83
2022/09/20 05:59:22;;;;;;;12.30;3.92;;;6.20;87.00;;;;;;5053990;28;20044;-83
2022/09/20 06:02:07;;;;;;;14.68;4.20;;;6.30;86.50;;;;;;5054052;28;20031;-83
2022/09/20 06:04:42;;;;;;;15.68;3.95;;;6.50;85.70;;;;;;5053737;28;20052;-85
2022/09/20 06:07:08;;;;;;;;;;;6.70;85.00;;;;;;5054276;28;20031;-85
2022/09/20 06:09:48;;;;;;;11.38;3.58;;;6.80;83.70;;;;;;5055123;28;20287;-86
2022/09/20 06:12:47;;;;;;;20.85;3.90;;;6.80;83.30;;;;;;5053075;28;20044;-78
2022/09/20 06:15:23;;;;;;;12.18;3.80;;;7.20;86.00;;;;;;5052672;28;20373;-78
2022/09/20 06:18:05;;;;;;;12.77;3.03;;;7.50;83.50;;;;;;5052662;28;20630;-84
2022/09/20 06:20:42;;;;;;;10.02;2.90;;;7.80;83.80;;;;;;5052649;28;20388;-79
2022/09/20 06:23:08;;;;;;;10.43;3.45;;;8.10;82.90;;;;;;5052637;28;20024;-78
2022/09/20 06:25:47;;;;;;;22.05;3.58;;;8.50;81.00;;;;;;5052817;28;20025;-77
2022/09/20 06:28:18;;;;;;;10.45;3.95;;;8.90;79.40;;;;;;5052689;28;20158;-74
2022/09/20 06:30:49;;;;;;;12.60;3.80;;;9.20;77.80;;;;;;5052476;28;20477;-74
2022/09/20 06:33:16;;;;;;;13.70;4.40;;;9.50;76.60;;;;;;5052434;28;20055;-73
2022/09/20 06:41:25;;;;;;;11.63;4.75;;;9.60;74.60;;;;;;5052078;28;20035;-75
2022/09/20 06:42:09;;;;;;;10.82;3.83;;;9.70;73.50;;;;;;5052820;28;20056;-76
2022/09/20 06:44:38;;;;;;;8.65;3.35;;;9.60;73.10;;;;;;5051481;28;20021;-75
2022/09/20 06:47:04;;;;;;;8.10;3.38;;;9.50;73.60;;;;;;5052461;28;20108;-75
2022/09/20 06:49:34;;;;;;;6.57;3.00;;;9.50;73.50;;;;;;5052221;28;20513;-75
2022/09/20 06:52:01;;;;;;;9.75;2.80;;;9.50;74.20;;;;;;5052467;28;20025;-75
2022/09/20 06:54:26;;;;;;;6.93;2.70;;;9.50;73.90;;;;;;5052297;28;20056;-75
2022/09/20 06:56:52;;;;;;;13.70;2.88;;;9.40;74.20;;;;;;5052269;28;20465;-75
2022/09/20 06:59:18;;;;;;;8.60;3.15;;;9.40;74.60;;;;;;5052426;28;20029;-75
2022/09/20 07:01:43;;;;;;;9.95;3.08;;;9.50;75.00;;;;;;5052089;28;20032;-76
2022/09/20 07:04:09;;;;;;;9.43;4.07;;;9.40;74.80;;;;;;5052060;28;20018;-76
2022/09/20 07:06:35;;;;;;;18.90;9.00;;;9.40;75.10;;;;;;5052365;28;20033;-76
2022/09/20 07:09:01;;;;;;;21.88;11.95;;;9.40;75.30;;;;;;5051966;28;20037;-76
2022/09/20 07:11:26;;;;;;;18.27;9.30;;;9.50;75.70;;;;;;5053000;28;20445;-75
2022/09/20 07:13:54;;;;;;;17.88;7.55;;;9.60;75.50;;;;;;5053872;28;20108;-75
2022/09/20 07:16:20;;;;;;;11.18;5.10;;;9.70;76.20;;;;;;5051406;28;20112;-75
2022/09/20 07:18:47;;;;;;;9.57;4.40;;;9.70;76.20;;;;;;5052246;28;20032;-75
2022/09/20 07:21:15;;;;;;;8.70;4.50;;;9.80;76.10;;;;;;5051084;28;20095;-82
2022/09/20 07:23:41;;;;;;;10.52;4.72;;;9.90;75.80;;;;;;5051151;28;20067;-80
2022/09/20 07:26:19;;;;;;;13.38;8.13;;;9.90;75.90;;;;;;5051131;28;20060;-83
2022/09/20 07:28:45;;;;;;;18.05;11.10;;;10.10;75.60;;;;;;5051009;28;20029;-79
2022/09/20 07:31:12;;;;;;;14.93;7.90;;;10.10;74.90;;;;;;5050943;28;20496;-78
2022/09/20 07:33:37;;;;;;;13.52;6.32;;;10.20;74.90;;;;;;5050998;28;20060;-79
2022/09/20 07:36:04;;;;;;;12.20;5.78;;;10.30;75.00;;;;;;5050459;28;20033;-78
2022/09/20 07:38:31;;;;;;;14.02;5.85;;;10.40;75.00;;;;;;5050718;28;20493;-80
2022/09/20 07:40:59;;;;;;;12.52;6.35;;;10.50;75.10;;;;;;5051109;28;20068;-80
2022/09/20 07:43:25;;;;;;;18.15;6.22;;;10.60;75.00;;;;;;5051308;28;20032;-77
2022/09/20 07:45:53;;;;;;;12.27;5.40;;;10.70;75.10;;;;;;5051215;28;20021;-80
2022/09/20 07:48:21;;;;;;;12.50;5.50;;;10.80;74.70;;;;;;5053396;28;20497;-78
2022/09/20 07:50:56;;;;;;;13.57;5.65;;;10.90;74.10;;;;;;5037891;28;20051;-78
2022/09/20 07:53:22;;;;;;;13.82;6.00;;;10.90;74.70;;;;;;5054586;28;20021;-79
2022/09/20 07:56:00;;;;;;;12.88;5.90;;;11.00;74.00;;;;;;5053929;28;20128;-80
2022/09/20 07:58:26;;;;;;;14.60;4.18;;;11.20;73.30;;;;;;5054461;28;20028;-79
2022/09/20 08:01:12;;;;;;;10.50;1.95;;;11.30;73.10;;;;;;5053799;28;20024;-79
2022/09/20 08:03:39;;;;;;;10.65;3.03;;;11.50;71.20;;;;;;5041197;28;20033;-80
2022/09/20 08:06:07;;;;;;;8.05;2.50;;;11.50;70.60;;;;;;5054003;28;20566;-78
2022/09/20 08:08:36;;;;;;;65.13;7.07;;;11.30;71.00;;;;;;5054146;28;20121;-79
2022/09/20 08:11:05;;;;;;;11.45;2.65;;;11.30;72.00;;;;;;5053836;28;20067;-79
2022/09/20 08:13:40;;;;;;;9.20;3.00;;;11.20;72.50;;;;;;5053763;28;20114;-79
2022/09/20 08:16:07;;;;;;;;;;;11.00;73.00;;;;;;5054225;28;20036;-79
2022/09/20 08:18:35;;;;;;;11.88;2.75;;;10.90;73.50;;;;;;5054028;28;20043;-79
2022/09/20 08:21:09;;;;;;;8.30;2.70;;;11.00;74.20;;;;;;5053482;28;20409;-79
2022/09/20 08:23:55;;;;;;;10.32;2.92;;;11.00;73.90;;;;;;5055069;28;20517;-80
2022/09/20 08:26:23;;;;;;;8.15;2.70;;;11.10;74.30;;;;;;5068609;28;20047;-80
2022/09/20 08:28:52;;;;;;;8.80;2.85;;;11.30;74.50;;;;;;5037038;28;20508;-80
2022/09/20 08:31:19;;;;;;;7.90;3.22;;;11.10;73.40;;;;;;5053668;28;20079;-80
2022/09/20 08:33:46;;;;;;;11.80;3.70;;;11.30;74.10;;;;;;5053913;28;20025;-79
2022/09/20 08:36:15;;;;;;;11.57;3.30;;;11.50;73.20;;;;;;5036919;28;20044;-79
2022/09/20 08:38:41;;;;;;;7.97;3.22;;;11.70;73.00;;;;;;5037016;28;20358;-81
2022/09/20 08:41:14;;;;;;;8.02;3.38;;;12.00;72.70;;;;;;5037007;28;20064;-83
2022/09/20 08:43:51;;;;;;;6.53;3.05;;;12.40;71.70;;;;;;5037570;28;20534;-82
2022/09/20 08:46:21;;;;;;;70.60;7.32;;;12.70;69.80;;;;;;5054510;28;20079;-81
2022/09/20 08:48:48;;;;;;;11.27;3.70;;;12.70;67.80;;;;;;5053195;28;20033;-81
2022/09/20 08:51:15;;;;;;;10.65;3.20;;;12.70;68.40;;;;;;5036554;28;20044;-82
2022/09/20 08:53:49;;;;;;;6.18;2.60;;;12.80;69.00;;;;;;5053269;28;20449;-82
2022/09/20 08:56:16;;;;;;;8.18;3.35;;;12.90;68.60;;;;;;5053142;28;20075;-83
2022/09/20 08:58:44;;;;;;;13.27;3.25;;;12.60;68.40;;;;;;5053648;28;20473;-81
2022/09/20 09:01:20;;;;;;;10.90;3.00;;;12.50;68.70;;;;;;5036491;28;20025;-80
2022/09/20 09:03:46;;;;;;;10.63;3.17;;;12.50;70.00;;;;;;5036343;28;20033;-81
2022/09/20 09:06:17;;;;;;;10.98;3.53;;;12.60;68.40;;;;;;5053030;28;20488;-82
2022/09/20 09:08:50;;;;;;;6.60;3.28;;;12.50;69.40;;;;;;5053635;28;20031;-80
2022/09/20 09:11:19;;;;;;;5.68;2.40;;;12.50;69.50;;;;;;5054270;28;20057;-81
2022/09/20 09:14:05;;;;;;;17.50;4.43;;;12.80;69.20;;;;;;5037676;28;20029;-79
2022/09/20 09:16:34;;;;;;;17.15;3.92;;;13.00;68.10;;;;;;5054079;28;20078;-84
2022/09/20 09:19:42;;;;;;;6.60;2.63;;;13.10;67.50;;;;;;5054441;28;20083;-82
2022/09/20 09:22:08;;;;;;;9.57;2.90;;;13.50;65.60;;;;;;5026069;28;20075;-80
2022/09/20 09:24:39;;;;;;;11.95;2.45;;;13.70;63.40;;;;;;5053994;28;20033;-82
2022/09/20 09:27:16;;;;;;;7.40;2.20;;;14.10;62.50;;;;;;5053979;28;20424;-80
2022/09/20 09:29:52;;;;;;;6.47;2.42;;;14.40;62.10;;;;;;5054962;28;20432;-82
2022/09/20 09:32:27;;;;;;;7.38;1.80;;;14.70;59.80;;;;;;5036875;28;20040;-82
2022/09/20 09:34:54;;;;;;;8.32;1.90;;;14.70;56.40;;;;;;5053436;28;20025;-79
2022/09/20 09:37:24;;;;;;;8.32;2.25;;;15.00;56.10;;;;;;5053059;28;20043;-83
2022/09/20 09:40:17;;;;;;;10.70;2.20;;;15.20;53.30;;;;;;5053147;28;20049;-82
2022/09/20 09:43:00;;;;;;;5.80;1.60;;;15.40;53.00;;;;;;5040202;28;20064;-79
2022/09/20 09:45:34;;;;;;;8.45;1.75;;;15.60;51.50;;;;;;5063135;28;20036;-82
2022/09/20 09:48:01;;;;;;;3.30;1.17;;;15.80;50.20;;;;;;5057285;28;20104;-80
2022/09/20 09:50:32;;;;;;;4.57;1.23;;;15.80;49.00;;;;;;5036077;28;20131;-80
2022/09/20 09:53:22;;;;;;;5.00;1.02;;;15.80;46.60;;;;;;5052494;28;20029;-79
2022/09/20 09:56:39;;;;;;;4.03;1.20;;;15.70;46.40;;;;;;5028858;28;20040;-80
2022/09/20 09:59:44;;;;;;;8.30;1.33;;;15.60;47.80;;;;;;5020295;28;20097;-82
2022/09/20 10:03:02;;;;;;;5.22;1.38;;;15.50;47.80;;;;;;5057071;28;20477;-86
2022/09/20 10:06:13;;;;;;;10.65;2.10;;;14.90;50.90;;;;;;5020379;28;20090;-87
2022/09/20 10:09:15;;;;;;;5.93;1.17;;;14.50;52.30;;;;;;5013019;28;20029;-86
2022/09/20 10:12:11;;;;;;;9.45;1.80;;;14.80;54.10;;;;;;5050503;28;20577;-80
2022/09/20 10:14:37;;;;;;;8.57;2.35;;;15.10;50.60;;;;;;5034680;28;20028;-80
2022/09/20 10:17:28;;;;;;;5.55;1.40;;;15.30;49.50;;;;;;5034082;28;20033;-80
2022/09/20 10:20:01;;;;;;;5.35;1.75;;;15.50;45.70;;;;;;5034572;28;20025;-83
2022/09/20 10:22:50;;;;;;;4.20;1.63;;;15.50;44.80;;;;;;5033881;28;20024;-81
2022/09/20 10:25:49;;;;;;;6.63;1.40;;;15.40;45.80;;;;;;5034053;28;20033;-80
2022/09/20 10:28:23;;;;;;;6.93;1.50;;;15.60;46.30;;;;;;5033895;28;20033;-80
2022/09/20 10:31:24;;;;;;;5.45;1.13;;;15.60;46.30;;;;;;5034127;28;20029;-81
2022/09/20 10:34:13;;;;;;;3.72;1.30;;;15.50;45.30;;;;;;5014008;28;20022;-80
2022/09/20 10:36:47;;;;;;;8.73;1.50;;;15.40;45.90;;;;;;5014107;28;20066;-80
2022/09/20 10:39:19;;;;;;;5.28;1.38;;;15.60;46.30;;;;;;5014124;28;20041;-80
2022/09/20 10:45:12;;;;;;;3.53;1.50;;;15.70;46.00;;;;;;5030680;28;20079;-83
2022/09/20 10:48:08;;;;;;;7.93;2.60;;;16.10;46.30;;;;;;5013909;28;20033;-79
2022/09/20 10:50:57;;;;;;;7.35;1.33;;;16.60;45.20;;;;;;5012570;28;20084;-78
2022/09/20 10:53:40;;;;;;;4.25;1.33;;;16.70;42.00;;;;;;5011865;28;20034;-79
2022/09/20 10:56:29;;;;;;;6.80;1.33;;;16.50;42.80;;;;;;5013088;28;20034;-78
2022/09/20 10:59:35;;;;;;;6.53;1.48;;;16.30;41.70;;;;;;5013125;28;20234;-79
2022/09/20 11:02:18;;;;;;;11.73;6.65;;;16.00;42.00;;;;;;5012808;28;20433;-79
2022/09/20 11:05:05;;;;;;;5.85;1.20;;;15.80;43.30;;;;;;5030924;28;20025;-80
2022/09/20 11:07:48;;;;;;;4.57;1.00;;;15.40;43.90;;;;;;5050501;28;20029;-78
2022/09/20 11:10:23;;;;;;;3.53;0.98;;;15.00;45.50;;;;;;5033840;28;20033;-79
2022/09/20 11:12:56;;;;;;;3.97;1.98;;;14.70;47.30;;;;;;5051966;28;20033;-79
2022/09/20 11:15:28;;;;;;;5.97;1.20;;;14.50;48.40;;;;;;5033967;28;20033;-79
2022/09/20 11:18:03;;;;;;;4.15;1.27;;;14.40;48.50;;;;;;5050781;28;20083;-78
2022/09/20 11:20:32;;;;;;;;;;;14.30;48.10;;;;;;5052200;28;20033;-79
2022/09/20 11:23:09;;;;;;;5.88;1.80;;;14.10;48.70;;;;;;5052319;28;19958;-79
2022/09/20 11:25:47;;;;;;;4.18;1.13;;;14.00;49.00;;;;;;5053767;28;20476;-78
2022/09/20 11:28:38;;;;;;;6.28;1.27;;;14.00;49.00;;;;;;5054233;28;20044;-79
2022/09/20 11:31:22;;;;;;;4.25;1.45;;;14.10;49.10;;;;;;5054075;28;20033;-81
2022/09/20 11:34:15;;;;;;;5.22;1.25;;;14.10;49.40;;;;;;5039074;28;20032;-79
2022/09/20 11:36:57;;;;;;;5.85;1.98;;;14.00;49.60;;;;;;5054278;28;20029;-81
2022/09/20 11:39:45;;;;;;;4.78;1.10;;;13.90;49.80;;;;;;5060072;28;20049;-80
2022/09/20 11:42:26;;;;;;;5.35;1.40;;;13.70;50.40;;;;;;5053810;28;20052;-80
2022/09/20 11:44:56;;;;;;;7.43;1.33;;;13.70;51.30;;;;;;5054466;28;20078;-79
2022/09/20 11:47:30;;;;;;;4.20;1.35;;;13.80;50.80;;;;;;5054082;28;20107;-79
2022/09/20 11:50:31;;;;;;;3.05;1.05;;;13.90;51.60;;;;;;5053787;28;20029;-78
2022/09/20 11:53:16;;;;;;;3.50;1.17;;;14.00;50.30;;;;;;5043983;28;20119;-77
2022/09/20 11:55:48;;;;;;;4.05;1.55;;;14.10;49.80;;;;;;5054332;28;20389;-79
2022/09/20 11:58:20;;;;;;;5.93;1.40;;;14.20;49.80;;;;;;5055553;28;20040;-82
2022/09/20 12:01:00;;;;;;;5.60;1.38;;;14.30;50.00;;;;;;5054323;28;20025;-81
2022/09/20 12:03:36;;;;;;;4.72;1.40;;;14.60;57.40;;;;;;5051624;28;20025;-80
2022/09/20 12:06:19;;;;;;;5.90;1.60;;;15.00;53.40;;;;;;5054071;28;20036;-80
2022/09/20 12:08:52;;;;;;;6.80;1.23;;;15.20;52.90;;;;;;5054780;28;20044;-85
2022/09/20 12:12:00;;;;;;;4.10;1.40;;;15.30;55.00;;;;;;5053036;28;20099;-81
2022/09/20 12:14:31;;;;;;;4.80;1.25;;;15.50;56.20;;;;;;5053739;28;20609;-82
2022/09/20 12:16:57;;;;;;;6.40;1.45;;;15.60;52.60;;;;;;5055204;28;20021;-79
2022/09/20 12:19:43;;;;;;;5.10;1.23;;;15.70;52.80;;;;;;5055120;28;20037;-81
2022/09/20 12:22:53;;;;;;;7.35;1.60;;;15.70;51.90;;;;;;5054058;28;20029;-83
2022/09/20 12:26:00;;;;;;;2.95;1.55;;;15.70;52.70;;;;;;5054711;28;20033;-81
2022/09/20 12:28:33;;;;;;;4.63;1.10;;;15.70;53.70;;;;;;5046985;28;20037;-84
2022/09/20 12:31:17;;;;;;;5.70;1.40;;;15.70;52.70;;;;;;5053445;28;20084;-80
2022/09/20 12:34:02;;;;;;;5.95;1.30;;;15.70;50.70;;;;;;5053929;28;20024;-82
2022/09/20 12:36:38;;;;;;;4.30;1.43;;;15.50;48.30;;;;;;5056388;28;20033;-93
2022/09/20 12:39:10;;;;;;;5.63;1.80;;;15.40;48.00;;;;;;5057980;28;20284;-90
2022/09/20 12:41:46;;;;;;;4.13;0.90;;;15.30;47.90;;;;;;5058316;28;20052;-94
2022/09/20 12:44:46;;;;;;;6.50;1.10;;;15.10;47.00;;;;;;5058792;28;20021;-82
2022/09/20 12:47:12;;;;;;;8.95;1.38;;;15.00;46.70;;;;;;5042117;28;20025;-84
2022/09/20 12:52:55;;;;;;;8.88;1.30;;;15.00;47.80;;;;;;5057216;28;20078;-82
2022/09/20 12:55:30;;;;;;;5.40;1.20;;;14.80;46.60;;;;;;5058646;28;20040;-81
2022/09/20 12:58:01;;;;;;;16.73;1.80;;;15.00;47.80;;;;;;5057265;28;20025;-80
2022/09/20 13:00:35;;;;;;;5.70;1.30;;;15.40;47.00;;;;;;5055853;28;20473;-81
2022/09/20 13:03:22;;;;;;;4.43;0.90;;;16.20;46.00;;;;;;5053640;28;20400;-81
2022/09/20 13:06:11;;;;;;;2.20;0.75;;;17.20;42.60;;;;;;5054731;28;20075;-81
2022/09/20 13:08:42;;;;;;;7.47;1.52;;;17.70;39.40;;;;;;5053192;28;20098;-82
2022/09/20 13:11:17;;;;;;;5.18;1.02;;;18.00;39.30;;;;;;5053346;28;20032;-81
2022/09/20 13:14:07;;;;;;;8.23;1.88;;;18.20;39.00;;;;;;5054167;28;20055;-80
2022/09/20 13:16:48;;;;;;;4.90;1.10;;;18.40;39.40;;;;;;5037059;28;20128;-86
2022/09/20 13:19:33;;;;;;;3.25;1.38;;;19.00;39.10;;;;;;5054304;28;20032;-80
2022/09/20 13:21:58;;;;;;;2.90;0.87;;;19.50;37.00;;;;;;5052804;28;20386;-81
2022/09/20 13:24:26;;;;;;;4.53;1.00;;;20.00;36.50;;;;;;5052625;28;20032;-82
2022/09/20 13:26:54;;;;;;;4.20;1.10;;;20.10;35.00;;;;;;5052465;28;20017;-81
2022/09/20 13:29:29;;;;;;;4.60;1.00;;;19.90;34.60;;;;;;5052672;28;20055;-81
2022/09/20 13:32:29;;;;;;;4.60;1.20;;;19.50;35.70;;;;;;5052518;28;20044;-81
2022/09/20 13:35:18;;;;;;;6.95;1.48;;;19.20;36.70;;;;;;5052680;28;20025;-80
2022/09/20 13:38:11;;;;;;;5.35;1.17;;;18.90;35.90;;;;;;5052945;28;20021;-82
2022/09/20 13:40:46;;;;;;;7.15;1.10;;;18.80;36.10;;;;;;5070335;28;20459;-87
2022/09/20 13:43:36;;;;;;;2.90;0.95;;;18.90;36.50;;;;;;5054437;28;20025;-84
2022/09/20 13:46:23;;;;;;;5.50;1.23;;;18.10;36.50;;;;;;5052050;28;20481;-83
2022/09/20 13:49:29;;;;;;;5.30;1.30;;;17.80;37.20;;;;;;5053507;28;20029;-85
2022/09/20 13:51:55;;;;;;;4.00;1.10;;;17.70;37.90;;;;;;5052328;28;20059;-81
2022/09/20 13:54:35;;;;;;;3.75;0.95;;;17.90;38.50;;;;;;5035641;28;20036;-79
2022/09/20 13:57:14;;;;;;;4.53;0.70;;;17.90;37.90;;;;;;5064150;28;20028;-83
2022/09/20 13:59:48;;;;;;;3.30;0.90;;;17.70;37.50;;;;;;5061330;28;20032;-80
2022/09/20 14:02:31;;;;;;;4.65;0.90;;;17.40;38.30;;;;;;5036885;28;20036;-80
2022/09/20 14:05:01;;;;;;;3.40;0.90;;;17.50;39.30;;;;;;5051386;28;20029;-80
2022/09/20 14:07:28;;;;;;;2.03;0.70;;;17.70;38.80;;;;;;5050209;28;20033;-79